Time;durP1;ratioP1;P1;durP2;ratioP2;P2;SDS_P1;SDS_P2;PMS_P1;PMS_P2;Temp;Humidity;BMP_temperature;BMP_pressure;BME280_temperature;BME280_humidity;BME280_pressure;Samples;Min_cycle;Max_cycle;Signal;HPM_P1;HPM_P2
2024/01/22 00:01:12;;;;;;;;;;;1.50;89.40;;;;;;5036733;28;23065;-78
2024/01/22 00:03:45;;;;;;;;;;;1.50;89.50;;;;;;5054654;28;19975;-79
2024/01/22 00:06:18;;;;;;;;;;;1.60;89.50;;;;;;5052746;28;19974;-75
2024/01/22 00:08:51;;;;;;;;;;;1.60;89.40;;;;;;5053257;28;19928;-75
2024/01/22 00:11:25;;;;;;;;;;;1.60;89.30;;;;;;5049355;28;19935;-77
2024/01/22 00:13:59;;;;;;;;;;;1.60;89.40;;;;;;5056933;28;19987;-74
2024/01/22 00:16:32;;;;;;;;;;;1.60;89.40;;;;;;5056524;28;19925;-75
2024/01/22 00:19:05;;;;;;;;;;;1.70;89.40;;;;;;5055715;28;20380;-76
2024/01/22 00:21:41;;;;;;;;;;;1.60;89.50;;;;;;5058665;28;19952;-74
2024/01/22 00:24:21;;;;;;;;;;;1.60;89.40;;;;;;5055485;28;19935;-75
2024/01/22 00:26:56;;;;;;;;;;;1.60;89.60;;;;;;5057287;28;20017;-74
2024/01/22 00:29:29;;;;;;;;;;;1.60;89.60;;;;;;5055743;28;19925;-76
2024/01/22 00:32:03;;;;;;;;;;;1.60;89.60;;;;;;5059003;28;19925;-75
2024/01/22 00:34:36;;;;;;;;;;;1.60;89.70;;;;;;5057033;28;20011;-77
2024/01/22 00:37:09;;;;;;;;;;;1.60;89.80;;;;;;5060336;28;19935;-78
2024/01/22 00:39:36;;;;;;;;;;;1.70;89.80;;;;;;5059258;28;20364;-76
2024/01/22 00:42:11;;;;;;;;;;;1.60;90.20;;;;;;5054010;28;19928;-75
2024/01/22 00:44:44;;;;;;;;;;;1.60;90.10;;;;;;5058445;28;19929;-75
2024/01/22 00:47:17;;;;;;;;;;;1.70;89.90;;;;;;5056285;28;19931;-78
2024/01/22 00:49:50;;;;;;;;;;;1.70;89.80;;;;;;5058218;28;20011;-78
2024/01/22 00:52:23;;;;;;;;;;;1.70;89.80;;;;;;5059563;28;19931;-78
2024/01/22 00:54:56;;;;;;;;;;;1.70;89.90;;;;;;5060256;28;19932;-77
2024/01/22 00:57:31;;;;;;;;;;;1.70;89.70;;;;;;5060599;28;19931;-77
2024/01/22 01:00:05;;;;;;;;;;;1.70;89.80;;;;;;5059293;28;19929;-77
2024/01/22 01:02:38;;;;;;;;;;;1.70;89.60;;;;;;5056472;28;19936;-76
2024/01/22 01:05:11;;;;;;;;;;;1.70;89.60;;;;;;5060501;28;19935;-77
2024/01/22 01:07:44;;;;;;;;;;;1.70;89.50;;;;;;5060817;28;19950;-62
2024/01/22 01:10:17;;;;;;;;;;;1.70;89.60;;;;;;5057010;28;19925;-62
2024/01/22 01:12:58;;;;;;;;;;;1.70;89.60;;;;;;5059399;28;20394;-61
2024/01/22 01:15:31;;;;;;;;;;;1.70;89.60;;;;;;5057480;28;19968;-61
2024/01/22 01:18:04;;;;;;;;;;;1.70;89.70;;;;;;5056508;28;19928;-63
2024/01/22 01:20:37;;;;;;;;;;;1.70;89.70;;;;;;5059886;28;19939;-60
2024/01/22 01:23:10;;;;;;;;;;;1.70;89.80;;;;;;5060010;28;19935;-62
2024/01/22 01:25:43;;;;;;;;;;;1.70;89.80;;;;;;5060716;28;19928;-60
2024/01/22 01:28:18;;;;;;;;;;;1.70;89.90;;;;;;5059011;28;19928;-64
2024/01/22 01:30:51;;;;;;;;;;;1.70;90.00;;;;;;5058662;28;20006;-60
2024/01/22 01:33:24;;;;;;;;;;;1.70;90.10;;;;;;5059472;28;20019;-63
2024/01/22 01:35:57;;;;;;;;;;;1.80;90.10;;;;;;5056283;28;19933;-60
2024/01/22 01:38:30;;;;;;;;;;;1.80;90.00;;;;;;5059775;28;19931;-61
2024/01/22 01:41:04;;;;;;;;;;;1.80;89.80;;;;;;5057125;28;20026;-60
2024/01/22 01:43:39;;;;;;;;;;;1.80;90.00;;;;;;5060225;28;20257;-61
2024/01/22 01:46:12;;;;;;;;;;;1.80;90.00;;;;;;5046208;28;19924;-61
2024/01/22 01:48:45;;;;;;;;;;;1.80;90.00;;;;;;5059292;28;19933;-61
2024/01/22 01:51:12;;;;;;;;;;;1.80;90.00;;;;;;5058735;28;19925;-61
2024/01/22 01:53:46;;;;;;;;;;;1.80;90.10;;;;;;5058647;28;19935;-62
2024/01/22 01:56:20;;;;;;;;;;;1.80;90.00;;;;;;5058629;28;19935;-61
2024/01/22 01:58:55;;;;;;;;;;;1.80;90.00;;;;;;5055576;28;19931;-61
2024/01/22 02:01:28;;;;;;;;;;;1.80;90.00;;;;;;5056745;28;19976;-61
2024/01/22 02:04:01;;;;;;;;;;;1.80;89.90;;;;;;5058732;28;19928;-62
2024/01/22 02:06:34;;;;;;;;;;;1.80;89.90;;;;;;5058870;28;19929;-61
2024/01/22 02:09:07;;;;;;;;;;;1.80;89.90;;;;;;5057281;28;19938;-61
2024/01/22 02:11:40;;;;;;;;;;;1.80;90.00;;;;;;5053100;28;20380;-60
2024/01/22 02:14:15;;;;;;;;;;;1.80;90.00;;;;;;5057767;28;19932;-60
2024/01/22 02:16:48;;;;;;;;;;;1.70;90.00;;;;;;5059190;28;19956;-61
2024/01/22 02:19:21;;;;;;;;;;;1.80;90.10;;;;;;5056324;28;19932;-60
2024/01/22 02:21:54;;;;;;;;;;;1.80;90.20;;;;;;5056795;28;19928;-60
2024/01/22 02:24:29;;;;;;;;;;;1.80;90.20;;;;;;5058222;28;19924;-61
2024/01/22 02:27:02;;;;;;;;;;;1.80;90.10;;;;;;5056845;28;19929;-59
2024/01/22 02:29:35;;;;;;;;;;;1.80;90.20;;;;;;5058759;28;19928;-59
2024/01/22 02:32:02;;;;;;;;;;;1.80;90.20;;;;;;5058074;28;19924;-60
2024/01/22 02:34:35;;;;;;;;;;;1.80;90.20;;;;;;5058879;28;20257;-61
2024/01/22 02:37:08;;;;;;;;;;;1.80;90.10;;;;;;5059404;28;19929;-61
2024/01/22 02:39:43;;;;;;;;;;;1.80;90.30;;;;;;5057148;28;19931;-59
2024/01/22 02:42:16;;;;;;;;;;;1.80;90.30;;;;;;5057897;28;20444;-60
2024/01/22 02:44:49;;;;;;;;;;;1.80;90.40;;;;;;5044944;28;19935;-60
2024/01/22 02:47:22;;;;;;;;;;;1.90;90.30;;;;;;5055816;28;20019;-61
2024/01/22 02:49:55;;;;;;;;;;;1.80;90.20;;;;;;5054951;28;19947;-61
2024/01/22 02:52:28;;;;;;;;;;;1.90;90.20;;;;;;5054821;28;19979;-59
2024/01/22 02:55:03;;;;;;;;;;;1.90;90.30;;;;;;5054281;28;19929;-59
2024/01/22 02:57:36;;;;;;;;;;;1.90;90.30;;;;;;5051682;28;19940;-61
2024/01/22 03:00:09;;;;;;;;;;;1.90;90.20;;;;;;5054042;28;19929;-60
2024/01/22 03:02:42;;;;;;;;;;;1.90;90.30;;;;;;5053610;28;19940;-61
2024/01/22 03:05:16;;;;;;;;;;;1.90;90.30;;;;;;5052602;28;19963;-60
2024/01/22 03:07:49;;;;;;;;;;;1.90;90.30;;;;;;5052414;28;19936;-59
2024/01/22 03:10:24;;;;;;;;;;;2.00;90.30;;;;;;5054450;28;20044;-60
2024/01/22 03:12:57;;;;;;;;;;;2.00;90.20;;;;;;5056381;28;19936;-60
2024/01/22 03:15:30;;;;;;;;;;;2.00;90.30;;;;;;5054276;28;19925;-59
2024/01/22 03:18:03;;;;;;;;;;;2.00;90.20;;;;;;5057720;28;19924;-61
2024/01/22 03:20:37;;;;;;;;;;;2.10;90.10;;;;;;5056806;28;20268;-59
2024/01/22 03:23:10;;;;;;;;;;;2.20;90.30;;;;;;5055501;28;19932;-60
2024/01/22 03:25:45;;;;;;;;;;;2.10;90.10;;;;;;5055093;28;20596;-59
2024/01/22 03:28:18;;;;;;;;;;;2.30;91.00;;;;;;5055183;28;19925;-62
2024/01/22 03:30:51;;;;;;;;;;;2.50;91.40;;;;;;5055872;28;20011;-61
2024/01/22 03:33:24;;;;;;;;;;;2.60;91.30;;;;;;5056928;28;19931;-62
2024/01/22 03:35:57;;;;;;;;;;;2.70;91.60;;;;;;5057479;28;20284;-63
2024/01/22 03:38:30;;;;;;;;;;;2.90;91.40;;;;;;5058082;28;20027;-61
2024/01/22 03:41:05;;;;;;;;;;;2.90;91.40;;;;;;5055897;28;20000;-61
2024/01/22 03:43:38;;;;;;;;;;;2.90;91.40;;;;;;5056754;28;20342;-62
2024/01/22 03:46:11;;;;;;;;;;;3.00;91.40;;;;;;5052679;28;19929;-62
2024/01/22 03:48:44;;;;;;;;;;;3.10;91.40;;;;;;5070174;28;20268;-62
2024/01/22 03:51:11;;;;;;;;;;;3.10;91.40;;;;;;5071359;28;19951;-61
2024/01/22 03:53:44;;;;;;;;;;;3.10;91.20;;;;;;5055506;28;19936;-60
2024/01/22 03:56:21;;;;;;;;;;;3.10;91.30;;;;;;5063264;28;20354;-62
2024/01/22 03:58:54;;;;;;;;;;;3.10;91.40;;;;;;5053462;28;19954;-61
2024/01/22 04:01:27;;;;;;;;;;;3.20;91.30;;;;;;5054058;28;19928;-61
2024/01/22 04:04:00;;;;;;;;;;;3.10;91.20;;;;;;5051908;28;19932;-62
2024/01/22 04:06:33;;;;;;;;;;;3.10;91.20;;;;;;5040957;28;19932;-60
2024/01/22 04:09:06;;;;;;;;;;;3.20;91.30;;;;;;5053085;28;19939;-61
2024/01/22 04:11:41;;;;;;;;;;;3.20;91.30;;;;;;5059538;28;20043;-61
2024/01/22 04:14:14;;;;;;;;;;;3.20;91.40;;;;;;5058892;28;19990;-61
2024/01/22 04:16:41;;;;;;;;;;;3.30;91.60;;;;;;5059065;28;19936;-62
2024/01/22 04:19:14;;;;;;;;;;;3.40;91.50;;;;;;5060224;28;19947;-61
2024/01/22 04:21:48;;;;;;;;;;;3.50;91.50;;;;;;5060027;28;19929;-61
2024/01/22 04:24:20;;;;;;;;;;;3.50;91.30;;;;;;5056391;28;19936;-60
2024/01/22 04:26:55;;;;;;;;;;;3.60;91.30;;;;;;5058841;28;19929;-61
2024/01/22 04:29:28;;;;;;;;;;;3.70;91.30;;;;;;5059495;28;19929;-60
2024/01/22 04:32:01;;;;;;;;;;;3.70;91.20;;;;;;5057608;28;19994;-62
2024/01/22 04:34:35;;;;;;;;;;;3.80;91.10;;;;;;5059149;28;20119;-61
2024/01/22 04:37:08;;;;;;;;;;;3.90;91.00;;;;;;5058388;28;19933;-63
2024/01/22 04:39:41;;;;;;;;;;;3.90;91.00;;;;;;5047417;28;19929;-60
2024/01/22 04:42:20;;;;;;;;;;;3.90;90.90;;;;;;5042492;28;20391;-59
2024/01/22 04:44:53;;;;;;;;;;;3.90;90.90;;;;;;5060880;28;19928;-60
2024/01/22 04:47:26;;;;;;;;;;;4.00;90.90;;;;;;5056456;28;19928;-60
2024/01/22 04:49:59;;;;;;;;;;;4.10;90.90;;;;;;5059943;28;19929;-59
2024/01/22 04:52:32;;;;;;;;;;;4.20;90.80;;;;;;5058350;28;19929;-60
2024/01/22 04:54:59;;;;;;;;;;;4.20;90.70;;;;;;5060641;28;19931;-60
2024/01/22 04:57:34;;;;;;;;;;;4.30;90.50;;;;;;5051525;28;19933;-60
2024/01/22 05:00:08;;;;;;;;;;;4.30;90.50;;;;;;5056660;28;20291;-59
2024/01/22 05:02:41;;;;;;;;;;;4.40;90.40;;;;;;5059394;28;19971;-59
2024/01/22 05:05:08;;;;;;;;;;;4.40;90.40;;;;;;5059415;28;19932;-58
2024/01/22 05:07:41;;;;;;;;;;;4.40;90.50;;;;;;5055160;28;19933;-59
2024/01/22 05:10:15;;;;;;;;;;;4.40;90.40;;;;;;5059977;28;20451;-59
2024/01/22 05:12:50;;;;;;;;;;;4.50;90.40;;;;;;5061133;28;19929;-59
2024/01/22 05:15:23;;;;;;;;;;;4.50;90.30;;;;;;5056990;28;19979;-60
2024/01/22 05:17:56;;;;;;;;;;;4.60;90.20;;;;;;5052033;28;19930;-60
2024/01/22 05:20:29;;;;;;;;;;;4.60;90.10;;;;;;5049295;28;20421;-60
2024/01/22 05:23:02;;;;;;;;;;;4.60;90.20;;;;;;5057261;28;19925;-59
2024/01/22 05:25:35;;;;;;;;;;;4.70;90.20;;;;;;5056612;28;19929;-60
2024/01/22 05:28:10;;;;;;;;;;;4.70;90.00;;;;;;5058227;28;20021;-59
2024/01/22 05:30:43;;;;;;;;;;;4.70;89.90;;;;;;5056598;28;19928;-60
2024/01/22 05:33:16;;;;;;;;;;;4.70;90.00;;;;;;5058911;28;20043;-59
2024/01/22 05:35:49;;;;;;;;;;;4.70;90.00;;;;;;5045363;28;20016;-59
2024/01/22 05:38:16;;;;;;;;;;;4.90;89.90;;;;;;5041743;28;19933;-60
2024/01/22 05:40:49;;;;;;;;;;;4.90;89.80;;;;;;5048269;28;20384;-60
2024/01/22 05:43:24;;;;;;;;;;;4.90;89.70;;;;;;5049500;28;20371;-61
2024/01/22 05:45:57;;;;;;;;;;;5.00;89.70;;;;;;5050300;28;19936;-60
2024/01/22 05:48:33;;;;;;;;;;;5.10;89.40;;;;;;5031216;28;19940;-61
2024/01/22 05:51:06;;;;;;;;;;;5.10;89.30;;;;;;5056803;28;19952;-61
2024/01/22 05:53:40;;;;;;;;;;;5.20;89.30;;;;;;5059281;28;19928;-61
2024/01/22 05:56:20;;;;;;;;;;;5.30;89.20;;;;;;5059510;28;19928;-61
2024/01/22 05:58:55;;;;;;;;;;;5.30;88.90;;;;;;5060363;28;19924;-62
2024/01/22 06:01:29;;;;;;;;;;;5.40;88.80;;;;;;5037644;28;19929;-63
2024/01/22 06:04:04;;;;;;;;;;;5.40;88.70;;;;;;5038878;28;19932;-63
2024/01/22 06:06:37;;;;;;;;;;;5.40;88.70;;;;;;5051303;28;20360;-63
2024/01/22 06:09:10;;;;;;;;;;;5.40;88.50;;;;;;5037182;28;20339;-62
2024/01/22 06:11:50;;;;;;;;;;;5.40;88.20;;;;;;5035959;28;19952;-62
2024/01/22 06:14:25;;;;;;;;;;;5.50;88.40;;;;;;5037911;28;19929;-61
2024/01/22 06:16:58;;;;;;;;;;;5.50;88.20;;;;;;5037016;28;19929;-60
2024/01/22 06:19:31;;;;;;;;;;;5.50;88.10;;;;;;5037737;28;19937;-63
2024/01/22 06:21:58;;;;;;;;;;;5.50;88.10;;;;;;5035702;28;19933;-62
2024/01/22 06:24:34;;;;;;;;;;;5.50;88.10;;;;;;5051144;28;20286;-64
2024/01/22 06:27:07;;;;;;;;;;;5.60;88.00;;;;;;5056771;28;20029;-61
2024/01/22 06:29:42;;;;;;;;;;;5.70;88.00;;;;;;5059467;28;20009;-62
2024/01/22 06:32:17;;;;;;;;;;;5.70;88.00;;;;;;5057059;28;19928;-62
2024/01/22 06:34:50;;;;;;;;;;;5.70;88.10;;;;;;5057467;28;19924;-63
2024/01/22 06:37:24;;;;;;;;;;;5.70;88.10;;;;;;5052655;28;19948;-60
2024/01/22 06:40:00;;;;;;;;;;;5.70;88.20;;;;;;5045143;28;19968;-63
2024/01/22 06:42:32;;;;;;;;;;;5.70;88.20;;;;;;5053188;28;20031;-63
2024/01/22 06:45:08;;;;;;;;;;;5.70;88.10;;;;;;5059460;28;20256;-62
2024/01/22 06:47:41;;;;;;;;;;;5.80;88.20;;;;;;5054813;28;19925;-62
2024/01/22 06:50:14;;;;;;;;;;;5.70;88.20;;;;;;5056860;28;20020;-61
2024/01/22 06:52:47;;;;;;;;;;;5.70;88.40;;;;;;5057522;28;19988;-62
2024/01/22 06:55:21;;;;;;;;;;;5.80;88.30;;;;;;5056535;28;20022;-63
2024/01/22 06:57:53;;;;;;;;;;;5.80;88.40;;;;;;5058129;28;20294;-64
2024/01/22 07:00:30;;;;;;;;;;;5.90;88.50;;;;;;5054449;28;19968;-65
2024/01/22 07:03:04;;;;;;;;;;;5.90;88.40;;;;;;5056123;28;20022;-63
2024/01/22 07:05:37;;;;;;;;;;;5.90;88.40;;;;;;5056067;28;19929;-64
2024/01/22 07:08:10;;;;;;;;;;;6.00;88.40;;;;;;5057380;28;20019;-65
2024/01/22 07:10:43;;;;;;;;;;;6.10;88.10;;;;;;5056113;28;20015;-64
2024/01/22 07:13:17;;;;;;;;;;;6.10;88.00;;;;;;5057026;28;19928;-62
2024/01/22 07:15:52;;;;;;;;;;;6.20;87.80;;;;;;5055425;28;19971;-62
2024/01/22 07:18:25;;;;;;;;;;;6.20;87.70;;;;;;5056451;28;20027;-64
2024/01/22 07:20:59;;;;;;;;;;;6.30;87.60;;;;;;5056875;28;19928;-63
2024/01/22 07:23:32;;;;;;;;;;;6.20;87.70;;;;;;5054522;28;20375;-63
2024/01/22 07:26:06;;;;;;;;;;;6.30;87.60;;;;;;5054624;28;20030;-63
2024/01/22 07:28:39;;;;;;;;;;;6.40;87.50;;;;;;5057852;28;19951;-65
2024/01/22 07:31:14;;;;;;;;;;;6.30;87.50;;;;;;5054603;28;19929;-64
2024/01/22 07:33:47;;;;;;;;;;;6.30;87.80;;;;;;5056146;28;20367;-64
2024/01/22 07:36:20;;;;;;;;;;;6.30;88.40;;;;;;5054665;28;19965;-64
2024/01/22 07:38:54;;;;;;;;;;;6.30;88.70;;;;;;5055552;28;19936;-64
2024/01/22 07:41:27;;;;;;;;;;;6.30;89.10;;;;;;5053064;28;19936;-64
2024/01/22 07:44:01;;;;;;;;;;;6.20;89.30;;;;;;5056941;28;19932;-63
2024/01/22 07:46:35;;;;;;;;;;;6.20;89.40;;;;;;5054538;28;19933;-65
2024/01/22 07:49:08;;;;;;;;;;;6.30;89.30;;;;;;5057147;28;20371;-64
2024/01/22 07:51:41;;;;;;;;;;;6.30;89.30;;;;;;5056168;28;19968;-63
2024/01/22 07:54:14;;;;;;;;;;;6.40;89.40;;;;;;5053430;28;19943;-64
2024/01/22 07:56:47;;;;;;;;;;;6.40;89.40;;;;;;5053600;28;20011;-65
2024/01/22 07:59:20;;;;;;;;;;;6.40;89.10;;;;;;5055179;28;20414;-64
2024/01/22 08:01:55;;;;;;;;;;;6.40;89.10;;;;;;5056245;28;19978;-64
2024/01/22 08:04:28;;;;;;;;;;;6.50;89.10;;;;;;5054863;28;19928;-65
2024/01/22 08:07:03;;;;;;;;;;;6.60;89.20;;;;;;5056763;28;19924;-64
2024/01/22 08:09:37;;;;;;;;;;;6.60;89.20;;;;;;5058442;28;19924;-75
2024/01/22 08:12:09;;;;;;;;;;;6.60;89.30;;;;;;5055723;28;19925;-79
2024/01/22 08:14:42;;;;;;;;;;;6.60;89.50;;;;;;5055954;28;19925;-79
2024/01/22 08:17:17;;;;;;;;;;;6.60;89.80;;;;;;5057427;28;20011;-79
2024/01/22 08:19:50;;;;;;;;;;;6.60;90.30;;;;;;5058600;28;19934;-79
2024/01/22 08:22:23;;;;;;;;;;;6.60;90.60;;;;;;5057195;28;19991;-78
2024/01/22 08:24:56;;;;;;;;;;;6.60;90.90;;;;;;5057187;28;19924;-77
2024/01/22 08:27:29;;;;;;;;;;;6.60;91.20;;;;;;5057911;28;19925;-78
2024/01/22 08:30:03;;;;;;;;;;;6.60;91.50;;;;;;5049325;28;20387;-75
2024/01/22 08:32:37;;;;;;;;;;;6.60;91.60;;;;;;5054474;28;19931;-76
2024/01/22 08:35:10;;;;;;;;;;;6.50;91.90;;;;;;5056135;28;19925;-78
2024/01/22 08:37:45;;;;;;;;;;;6.50;92.00;;;;;;5056775;28;20851;-79
2024/01/22 08:40:21;;;;;;;;;;;6.50;92.20;;;;;;5054204;28;19925;-77
2024/01/22 08:42:49;;;;;;;;;;;6.50;92.30;;;;;;5056198;28;19924;-76
2024/01/22 08:45:23;;;;;;;;;;;6.40;92.40;;;;;;5054058;28;19952;-76
2024/01/22 08:47:57;;;;;;;;;;;6.40;92.50;;;;;;5053301;28;19931;-78
2024/01/22 08:50:31;;;;;;;;;;;6.40;92.60;;;;;;5057165;28;19948;-77
2024/01/22 08:53:03;;;;;;;;;;;6.40;92.60;;;;;;5061070;28;19933;-77
2024/01/22 08:55:37;;;;;;;;;;;6.40;92.70;;;;;;5063327;28;19924;-75
2024/01/22 08:58:04;;;;;;;;;;;6.40;92.70;;;;;;5057368;28;20048;-75
2024/01/22 09:00:38;;;;;;;;;;;6.40;92.70;;;;;;5062108;28;19929;-76
2024/01/22 09:03:12;;;;;;;;;;;6.40;92.80;;;;;;5058106;28;20368;-78
2024/01/22 09:05:45;;;;;;;;;;;6.40;92.90;;;;;;5055468;28;19925;-77
2024/01/22 09:08:19;;;;;;;;;;;6.40;92.90;;;;;;5058709;28;20383;-77
2024/01/22 09:10:51;;;;;;;;;;;6.40;92.90;;;;;;5060386;28;20264;-75
2024/01/22 09:13:24;;;;;;;;;;;6.40;92.80;;;;;;5056058;28;20260;-71
2024/01/22 09:15:52;;;;;;;;;;;6.50;92.90;;;;;;5058451;28;19924;-78
2024/01/22 09:18:27;;;;;;;;;;;6.50;92.90;;;;;;5057244;28;19931;-61
2024/01/22 09:21:08;;;;;;;;;;;6.60;92.70;;;;;;5059531;28;19969;-62
2024/01/22 09:23:41;;;;;;;;;;;6.60;92.70;;;;;;5056922;28;19925;-62
2024/01/22 09:26:15;;;;;;;;;;;6.70;92.70;;;;;;5060023;28;19932;-61
2024/01/22 09:28:48;;;;;;;;;;;6.70;92.70;;;;;;5055576;28;19929;-62
2024/01/22 09:31:20;;;;;;;;;;;6.80;92.60;;;;;;5058925;28;21816;-62
2024/01/22 09:33:55;;;;;;;;;;;6.80;92.60;;;;;;5058136;28;19936;-60
2024/01/22 09:36:28;;;;;;;;;;;6.90;92.60;;;;;;5056189;28;19936;-62
2024/01/22 09:39:02;;;;;;;;;;;6.90;92.60;;;;;;5055160;28;19932;-61
2024/01/22 09:41:36;;;;;;;;;;;6.90;92.70;;;;;;5057549;28;19935;-61
2024/01/22 09:44:10;;;;;;;;;;;6.90;92.60;;;;;;5058622;28;19932;-61
2024/01/22 09:46:43;;;;;;;;;;;6.90;92.50;;;;;;5056121;28;19929;-61
2024/01/22 09:49:17;;;;;;;;;;;7.00;92.60;;;;;;5058743;28;19959;-59
2024/01/22 09:51:50;;;;;;;;;;;7.00;92.50;;;;;;5058101;28;19929;-61
2024/01/22 09:54:25;;;;;;;;;;;7.00;92.50;;;;;;5059263;28;19936;-61
2024/01/22 09:56:59;;;;;;;;;;;7.00;92.50;;;;;;5057054;28;19936;-62
2024/01/22 09:59:33;;;;;;;;;;;7.10;92.40;;;;;;5054777;28;20019;-61
2024/01/22 10:02:06;;;;;;;;;;;7.10;92.50;;;;;;5070037;28;19952;-61
2024/01/22 10:04:41;;;;;;;;;;;7.10;92.30;;;;;;5057000;28;20019;-62
2024/01/22 10:07:15;;;;;;;;;;;7.10;92.30;;;;;;5058877;28;20046;-62
2024/01/22 10:09:48;;;;;;;;;;;7.10;92.30;;;;;;5057760;28;20379;-61
2024/01/22 10:12:21;;;;;;;;;;;7.20;92.10;;;;;;5057593;28;19932;-61
2024/01/22 10:14:55;;;;;;;;;;;7.20;92.10;;;;;;5056366;28;19925;-60
2024/01/22 10:17:27;;;;;;;;;;;7.20;92.10;;;;;;5053994;28;20029;-61
2024/01/22 10:20:07;;;;;;;;;;;7.20;92.00;;;;;;5058639;28;19990;-60
2024/01/22 10:22:40;;;;;;;;;;;7.30;92.00;;;;;;5058877;28;20439;-61
2024/01/22 10:25:14;;;;;;;;;;;7.40;91.90;;;;;;5059617;28;20372;-61
2024/01/22 10:27:46;;;;;;;;;;;7.40;91.80;;;;;;5056999;28;19929;-61
2024/01/22 10:30:21;;;;;;;;;;;7.40;91.80;;;;;;5056809;28;19956;-61
2024/01/22 10:32:48;;;;;;;;;;;7.40;91.70;;;;;;5055287;28;19928;-60
2024/01/22 10:35:25;;;;;;;;;;;7.50;91.60;;;;;;5052585;28;22926;-61
2024/01/22 10:38:05;;;;;;;;;;;7.50;91.60;;;;;;5057642;28;19928;-62
2024/01/22 10:40:39;;;;;;;;;;;7.60;91.50;;;;;;5058009;28;20539;-61
2024/01/22 10:43:24;;;;;;;;;;;7.60;91.50;;;;;;5052395;28;20283;-60
2024/01/22 10:45:57;;;;;;;;;;;7.60;91.50;;;;;;5054930;28;20421;-62
2024/01/22 10:48:30;;;;;;;;;;;7.70;91.40;;;;;;5057330;28;20002;-63
2024/01/22 10:51:05;;;;;;;;;;;7.70;91.40;;;;;;5057630;28;19932;-61
2024/01/22 10:53:39;;;;;;;;;;;7.70;91.20;;;;;;5055663;28;19932;-61
2024/01/22 10:56:16;;;;;;;;;;;7.70;91.50;;;;;;5057181;28;19925;-62
2024/01/22 10:58:49;;;;;;;;;;;7.70;91.60;;;;;;5053861;28;19929;-61
2024/01/22 11:01:23;;;;;;;;;;;7.70;91.70;;;;;;5055012;28;19936;-61
2024/01/22 11:03:57;;;;;;;;;;;7.70;91.80;;;;;;5054773;28;19924;-61
2024/01/22 11:06:33;;;;;;;;;;;7.70;92.00;;;;;;5054897;28;20406;-61
2024/01/22 11:09:08;;;;;;;;;;;7.70;92.00;;;;;;5055888;28;19932;-62
2024/01/22 11:11:41;;;;;;;;;;;7.70;92.10;;;;;;5057417;28;19931;-62
2024/01/22 11:14:15;;;;;;;;;;;7.70;92.30;;;;;;5054917;28;19932;-62
2024/01/22 11:16:49;;;;;;;;;;;7.70;92.40;;;;;;5056713;28;19929;-61
2024/01/22 11:19:22;;;;;;;;;;;7.70;92.60;;;;;;5055650;28;19928;-62
2024/01/22 11:21:57;;;;;;;;;;;7.70;92.60;;;;;;5056592;28;20023;-62
2024/01/22 11:24:31;;;;;;;;;;;7.70;92.80;;;;;;5059588;28;19995;-63
2024/01/22 11:27:05;;;;;;;;;;;7.70;92.80;;;;;;5058389;28;19939;-63
2024/01/22 11:29:38;;;;;;;;;;;7.70;92.90;;;;;;5047971;28;19929;-62
2024/01/22 11:32:32;;;;;;;;;;;7.70;93.00;;;;;;5051812;28;20399;-62
2024/01/22 11:35:12;;;;;;;;;;;7.70;93.10;;;;;;5052902;28;19929;-62
2024/01/22 11:37:47;;;;;;;;;;;7.70;93.10;;;;;;5055790;28;20361;-63
2024/01/22 11:40:41;;;;;;;;;;;7.70;93.10;;;;;;5056116;28;19932;-61
2024/01/22 11:43:15;;;;;;;;;;;7.80;93.10;;;;;;5055612;28;19949;-62
2024/01/22 11:45:51;;;;;;;;;;;7.80;93.20;;;;;;5056943;28;20405;-62
2024/01/22 11:48:25;;;;;;;;;;;7.80;93.20;;;;;;5055857;28;20376;-61
2024/01/22 11:50:58;;;;;;;;;;;7.80;93.20;;;;;;5055010;28;19947;-60
2024/01/22 11:53:33;;;;;;;;;;;7.90;93.20;;;;;;5051824;28;20991;-61
2024/01/22 11:56:07;;;;;;;;;;;7.90;93.20;;;;;;5053518;28;19928;-61
2024/01/22 11:58:41;;;;;;;;;;;7.90;93.20;;;;;;5053523;28;20393;-63
2024/01/22 12:01:14;;;;;;;;;;;7.90;93.20;;;;;;5054134;28;19948;-62
2024/01/22 12:03:48;;;;;;;;;;;7.90;93.20;;;;;;5053901;28;19937;-60
2024/01/22 12:06:14;;;;;;;;;;;7.90;93.30;;;;;;5054480;28;19935;-62
2024/01/22 12:08:57;;;;;;;;;;;7.90;93.30;;;;;;5055376;28;19935;-62
2024/01/22 12:11:36;;;;;;;;;;;8.00;93.30;;;;;;5036075;28;19933;-60
2024/01/22 12:14:12;;;;;;;;;;;7.90;93.30;;;;;;5033736;28;20848;-62
2024/01/22 12:16:45;;;;;;;;;;;8.00;93.40;;;;;;5033293;28;19924;-62
2024/01/22 12:19:18;;;;;;;;;;;8.00;93.40;;;;;;5034578;28;20352;-61
2024/01/22 12:21:51;;;;;;;;;;;8.00;93.40;;;;;;5037372;28;20399;-62
2024/01/22 12:24:25;;;;;;;;;;;8.00;93.50;;;;;;5035839;28;19925;-63
2024/01/22 12:26:59;;;;;;;;;;;8.00;93.50;;;;;;5038877;28;20411;-62
2024/01/22 12:29:32;;;;;;;;;;;8.00;93.50;;;;;;5038318;28;20291;-61
2024/01/22 12:32:06;;;;;;;;;;;8.00;93.40;;;;;;5038399;28;19995;-62
2024/01/22 12:34:39;;;;;;;;;;;8.00;93.40;;;;;;5038079;28;19925;-61
2024/01/22 12:37:15;;;;;;;;;;;8.00;93.40;;;;;;5046968;28;20031;-61
2024/01/22 12:39:50;;;;;;;;;;;8.00;93.40;;;;;;5059248;28;19944;-62
2024/01/22 12:42:24;;;;;;;;;;;8.00;93.40;;;;;;5059879;28;20330;-61
2024/01/22 12:44:58;;;;;;;;;;;8.00;93.40;;;;;;5073862;28;20412;-62
2024/01/22 12:47:33;;;;;;;;;;;8.00;93.50;;;;;;5056400;28;19934;-65
2024/01/22 12:50:06;;;;;;;;;;;8.00;93.50;;;;;;5060679;28;20012;-79
2024/01/22 12:52:40;;;;;;;;;;;7.90;93.40;;;;;;5058334;28;19975;-77
2024/01/22 12:55:15;;;;;;;;;;;7.90;93.40;;;;;;5059473;28;19933;-80
2024/01/22 12:57:49;;;;;;;;;;;8.00;93.40;;;;;;5060374;28;19932;-78
2024/01/22 13:00:22;;;;;;;;;;;8.00;93.40;;;;;;5057269;28;19928;-77
2024/01/22 13:02:55;;;;;;;;;;;8.00;93.30;;;;;;5056007;28;19925;-77
2024/01/22 13:05:28;;;;;;;;;;;8.00;93.40;;;;;;5058725;28;19939;-76
2024/01/22 13:08:01;;;;;;;;;;;8.00;93.30;;;;;;5057497;28;19933;-77
2024/01/22 13:10:36;;;;;;;;;;;8.00;93.20;;;;;;5048916;28;20361;-77
2024/01/22 13:13:11;;;;;;;;;;;8.00;93.10;;;;;;5054943;28;19932;-78
2024/01/22 13:15:38;;;;;;;;;;;8.00;93.10;;;;;;5057645;28;19950;-78
2024/01/22 13:18:11;;;;;;;;;;;8.00;93.00;;;;;;5058763;28;19971;-79
2024/01/22 13:20:44;;;;;;;;;;;8.10;93.00;;;;;;5058879;28;19936;-76
2024/01/22 13:23:17;;;;;;;;;;;8.10;92.80;;;;;;5058527;28;20394;-77
2024/01/22 13:25:51;;;;;;;;;;;8.10;92.70;;;;;;5057096;28;20397;-77
2024/01/22 13:28:25;;;;;;;;;;;8.20;92.70;;;;;;5059137;28;19975;-77
2024/01/22 13:30:58;;;;;;;;;;;8.20;92.60;;;;;;5057573;28;19989;-80
2024/01/22 13:33:31;;;;;;;;;;;8.20;92.50;;;;;;5050819;28;20427;-77
2024/01/22 13:36:04;;;;;;;;;;;8.20;92.50;;;;;;5059170;28;19932;-78
2024/01/22 13:38:41;;;;;;;;;;;8.20;92.40;;;;;;5058415;28;19924;-77
2024/01/22 13:41:16;;;;;;;;;;;8.30;92.40;;;;;;5057588;28;20356;-78
2024/01/22 13:43:51;;;;;;;;;;;8.30;92.40;;;;;;5058633;28;19936;-76
2024/01/22 13:46:18;;;;;;;;;;;8.30;92.20;;;;;;5057139;28;19928;-77
2024/01/22 13:48:51;;;;;;;;;;;8.40;92.20;;;;;;5054295;28;20085;-77
2024/01/22 13:51:24;;;;;;;;;;;8.30;92.20;;;;;;5056490;28;19936;-77
2024/01/22 13:53:57;;;;;;;;;;;8.40;92.10;;;;;;5058198;28;19957;-78
2024/01/22 13:56:35;;;;;;;;;;;8.40;91.90;;;;;;5068132;28;20015;-75
2024/01/22 13:59:09;;;;;;;;;;;8.40;91.90;;;;;;5059551;28;19971;-61
2024/01/22 14:01:43;;;;;;;;;;;8.50;91.80;;;;;;5058672;28;19932;-63
2024/01/22 14:04:16;;;;;;;;;;;8.50;91.80;;;;;;5059263;28;19925;-62
2024/01/22 14:06:49;;;;;;;;;;;8.50;91.80;;;;;;5058939;28;19932;-62
2024/01/22 14:09:22;;;;;;;;;;;8.40;91.70;;;;;;5056758;28;20019;-61
2024/01/22 14:12:04;;;;;;;;;;;8.50;91.70;;;;;;5055594;28;19925;-63
2024/01/22 14:14:37;;;;;;;;;;;8.40;91.70;;;;;;5055460;28;20333;-61
2024/01/22 14:17:10;;;;;;;;;;;8.40;91.90;;;;;;5057220;28;19931;-62
2024/01/22 14:19:43;;;;;;;;;;;8.40;91.90;;;;;;5057952;28;19929;-60
2024/01/22 14:22:16;;;;;;;;;;;8.40;92.10;;;;;;5055362;28;19925;-62
2024/01/22 14:24:50;;;;;;;;;;;8.40;92.20;;;;;;5051457;28;19928;-61
2024/01/22 14:27:24;;;;;;;;;;;8.30;92.40;;;;;;5051060;28;19941;-61
2024/01/22 14:29:58;;;;;;;;;;;8.30;92.50;;;;;;5055637;28;19925;-59
2024/01/22 14:32:31;;;;;;;;;;;8.30;92.60;;;;;;5058789;28;19946;-60
2024/01/22 14:35:05;;;;;;;;;;;8.30;92.70;;;;;;5055971;28;19924;-61
2024/01/22 14:37:38;;;;;;;;;;;8.30;92.80;;;;;;5059439;28;19925;-62
2024/01/22 14:40:12;;;;;;;;;;;8.20;92.80;;;;;;5057506;28;19936;-62
2024/01/22 14:42:47;;;;;;;;;;;8.30;92.90;;;;;;5054806;28;19939;-62
2024/01/22 14:45:14;;;;;;;;;;;8.20;93.00;;;;;;5058606;28;19934;-62
2024/01/22 14:47:47;;;;;;;;;;;8.20;93.00;;;;;;5054848;28;19925;-60
2024/01/22 14:50:20;;;;;;;;;;;8.20;93.00;;;;;;5055605;28;19925;-62
2024/01/22 14:52:53;;;;;;;;;;;8.20;93.00;;;;;;5058804;28;19924;-61
2024/01/22 14:55:26;;;;;;;;;;;8.20;93.10;;;;;;5057202;28;19951;-61
2024/01/22 14:58:00;;;;;;;;;;;8.20;93.20;;;;;;5057800;28;19928;-62
2024/01/22 15:00:35;;;;;;;;;;;8.10;93.30;;;;;;5054013;28;20014;-62
2024/01/22 15:03:08;;;;;;;;;;;8.10;93.40;;;;;;5055155;28;19933;-61
2024/01/22 15:05:42;;;;;;;;;;;8.10;93.50;;;;;;5058394;28;19937;-61
2024/01/22 15:08:16;;;;;;;;;;;8.10;93.50;;;;;;5056433;28;19924;-61